Terminal Aerodrome Forecast
Issued by NWS

Home | Current Version | Previous Version | Graphics & Text | Print | Product List | Glossary On
Versions: 1 2 3 4 5 6 7 8 9 10 11 12 13 14 15 16 17 18 19 20
775
FTUS43 KABR 241412 AAA
TAFPIR
TAF AMD
KPIR 241412Z 2414/2512 33017KT P6SM FEW100
     FM241700 32017G25KT P6SM SCT250
     FM250200 VRB05KT P6SM SKC=

USA.gov is the U.S. government's official web portal to all federal, state and local government web resources and services.